createdAt,value
2023-01-21T00:00:59.555Z,2.80
2023-01-21T00:03:26.465Z,2.93
2023-01-21T00:05:53.146Z,2.47
2023-01-21T00:08:19.764Z,2.00
2023-01-21T00:10:46.372Z,2.27
2023-01-21T00:13:12.965Z,2.20
2023-01-21T00:15:39.684Z,1.90
2023-01-21T00:18:06.848Z,2.10
2023-01-21T00:20:33.513Z,2.47
2023-01-21T00:23:00.194Z,2.00
2023-01-21T00:25:26.857Z,2.70
2023-01-21T00:27:53.475Z,3.83
2023-01-21T00:30:20.225Z,2.53
2023-01-21T00:32:47.483Z,4.10
2023-01-21T00:35:14.116Z,2.37
2023-01-21T00:37:40.675Z,3.33
2023-01-21T00:40:07.731Z,3.73
2023-01-21T00:42:34.445Z,2.83
2023-01-21T00:45:00.984Z,3.40
2023-01-21T00:47:28.075Z,2.60
2023-01-21T00:49:54.638Z,3.67
2023-01-21T00:52:21.303Z,3.10
2023-01-21T00:54:47.881Z,2.57
2023-01-21T00:57:14.485Z,3.23
2023-01-21T00:59:41.104Z,3.10
2023-01-21T01:02:08.600Z,2.03
2023-01-21T01:04:35.374Z,3.77
2023-01-21T01:07:01.991Z,2.40
2023-01-21T01:09:28.782Z,2.80
2023-01-21T01:11:55.365Z,2.90
2023-01-21T01:14:22.379Z,3.00
2023-01-21T01:16:49.891Z,2.83
2023-01-21T01:19:16.548Z,4.20
2023-01-21T01:21:43.101Z,2.53
2023-01-21T01:24:09.680Z,3.37
2023-01-21T01:26:36.349Z,2.73
2023-01-21T01:29:04.568Z,2.97
2023-01-21T01:31:31.672Z,2.93
2023-01-21T01:33:58.372Z,2.37
2023-01-21T01:36:25.327Z,3.13
2023-01-21T01:38:53.781Z,2.63
2023-01-21T01:41:24.341Z,2.33
2023-01-21T01:43:57.357Z,2.17
2023-01-21T01:46:26.568Z,2.87
2023-01-21T01:49:16.851Z,2.53
2023-01-21T01:51:52.653Z,2.73
2023-01-21T01:54:26.034Z,3.37
2023-01-21T01:56:57.401Z,3.07
2023-01-21T01:59:24.551Z,2.30
2023-01-21T02:01:51.423Z,4.73
2023-01-21T02:04:22.876Z,3.30
2023-01-21T02:06:52.264Z,2.67
2023-01-21T02:09:19.227Z,2.40
2023-01-21T02:11:45.993Z,3.20
2023-01-21T02:14:12.826Z,2.77
2023-01-21T02:17:00.537Z,2.07
2023-01-21T02:19:58.005Z,2.40
2023-01-21T02:22:31.458Z,2.53
2023-01-21T02:25:16.877Z,2.77
2023-01-21T02:27:55.551Z,2.47
2023-01-21T02:30:59.142Z,1.97
2023-01-21T02:34:01.024Z,2.30
2023-01-21T02:36:43.552Z,1.80
2023-01-21T02:39:23.146Z,2.43
2023-01-21T02:41:55.510Z,2.17
2023-01-21T02:44:35.128Z,2.67
2023-01-21T02:47:28.389Z,2.60
2023-01-21T02:50:14.476Z,2.90
2023-01-21T02:52:41.237Z,1.37
2023-01-21T02:55:16.868Z,3.10
2023-01-21T02:57:52.337Z,2.30
2023-01-21T03:00:24.191Z,3.30
2023-01-21T03:03:09.583Z,3.17
2023-01-21T03:06:12.121Z,2.10
2023-01-21T03:08:50.771Z,1.70
2023-01-21T03:11:19.990Z,1.90
2023-01-21T03:14:29.225Z,3.13
2023-01-21T03:17:05.008Z,2.10
2023-01-21T03:19:55.597Z,2.60
2023-01-21T03:22:26.728Z,2.27
2023-01-21T03:24:55.857Z,1.80
2023-01-21T03:27:26.880Z,2.13
2023-01-21T03:29:58.644Z,2.63
2023-01-21T03:32:26.491Z,3.20
2023-01-21T03:34:55.780Z,3.47
2023-01-21T03:37:28.071Z,2.33
2023-01-21T03:40:23.882Z,2.13
2023-01-21T03:42:52.506Z,2.87
2023-01-21T03:45:45.246Z,3.47
2023-01-21T03:48:24.528Z,2.57
2023-01-21T03:50:58.970Z,2.43
2023-01-21T03:53:25.926Z,2.70
2023-01-21T03:55:52.564Z,2.90
2023-01-21T03:58:19.246Z,4.07
2023-01-21T04:00:46.698Z,3.17
2023-01-21T04:03:13.342Z,3.93
2023-01-21T04:05:39.889Z,3.57
2023-01-21T04:08:06.501Z,3.40
2023-01-21T04:10:33.052Z,2.67
2023-01-21T04:12:59.611Z,3.03
2023-01-21T04:15:26.208Z,3.07
2023-01-21T04:17:52.778Z,2.87
2023-01-21T04:20:19.741Z,3.23
2023-01-21T04:22:46.340Z,2.90
2023-01-21T04:25:12.947Z,2.93
2023-01-21T04:27:39.502Z,1.90
2023-01-21T04:30:06.791Z,2.30
2023-01-21T04:32:33.576Z,2.73
2023-01-21T04:35:00.131Z,2.33
2023-01-21T04:37:26.682Z,3.60
2023-01-21T04:39:53.240Z,2.27
2023-01-21T04:42:19.800Z,1.87
2023-01-21T04:44:46.382Z,1.97
2023-01-21T04:47:13.039Z,1.70
2023-01-21T04:49:39.589Z,2.30
2023-01-21T04:52:06.304Z,1.87
2023-01-21T04:54:32.915Z,3.10
2023-01-21T04:56:59.562Z,3.17
2023-01-21T04:59:26.306Z,2.60
2023-01-21T05:01:52.867Z,1.83
2023-01-21T05:04:19.445Z,2.93
2023-01-21T05:06:46.013Z,3.90
2023-01-21T05:09:12.622Z,1.90
2023-01-21T05:11:39.225Z,1.53
2023-01-21T05:14:05.830Z,2.67
2023-01-21T05:16:32.417Z,2.20
2023-01-21T05:18:58.998Z,3.37
2023-01-21T05:21:25.676Z,2.10
2023-01-21T05:23:52.223Z,2.77
2023-01-21T05:26:19.338Z,1.93
2023-01-21T05:28:45.901Z,3.57
2023-01-21T05:31:12.823Z,2.27
2023-01-21T05:33:39.447Z,2.20
2023-01-21T05:36:06.454Z,2.23
2023-01-21T05:38:33.040Z,2.77
2023-01-21T05:41:01.339Z,3.03
2023-01-21T05:43:28.112Z,2.57
2023-01-21T05:45:54.801Z,2.10
2023-01-21T05:48:21.720Z,2.03
2023-01-21T05:50:49.496Z,1.73
2023-01-21T05:53:17.607Z,2.20
2023-01-21T05:55:44.194Z,2.47
2023-01-21T05:58:10.865Z,2.93
2023-01-21T06:00:37.482Z,2.17
2023-01-21T06:03:04.450Z,3.03
2023-01-21T06:05:31.203Z,2.63
2023-01-21T06:07:57.776Z,2.57
2023-01-21T06:10:24.401Z,2.63
2023-01-21T06:12:54.325Z,2.60
2023-01-21T06:15:20.948Z,2.97
2023-01-21T06:17:47.707Z,2.13
2023-01-21T06:20:14.649Z,3.10
2023-01-21T06:22:41.319Z,2.37
2023-01-21T06:25:08.238Z,2.63
2023-01-21T06:27:37.158Z,1.67
2023-01-21T06:30:06.147Z,2.90
2023-01-21T06:32:34.331Z,3.17
2023-01-21T06:35:00.934Z,2.37
2023-01-21T06:37:27.924Z,1.47
2023-01-21T06:39:54.673Z,1.93
2023-01-21T06:42:22.097Z,2.60
2023-01-21T06:44:48.797Z,3.07
2023-01-21T06:47:15.497Z,1.77
2023-01-21T06:49:42.141Z,2.53
2023-01-21T06:52:08.718Z,2.93
2023-01-21T06:54:35.321Z,2.50
2023-01-21T06:57:02.001Z,2.17
2023-01-21T06:59:28.581Z,3.03
2023-01-21T07:01:55.339Z,2.77
2023-01-21T07:04:22.309Z,2.40
2023-01-21T07:06:49.644Z,2.50
2023-01-21T07:09:16.270Z,2.37
2023-01-21T07:11:42.815Z,2.13
2023-01-21T07:14:10.024Z,3.13
2023-01-21T07:16:36.613Z,2.77
2023-01-21T07:19:03.288Z,3.27
2023-01-21T07:21:29.880Z,2.07
2023-01-21T07:23:56.524Z,3.87
2023-01-21T07:26:23.476Z,3.60
2023-01-21T07:28:50.041Z,2.87
2023-01-21T07:31:16.876Z,3.57
2023-01-21T07:33:43.536Z,2.97
2023-01-21T07:36:10.187Z,2.63
2023-01-21T07:38:36.830Z,2.77
2023-01-21T07:41:03.563Z,3.07
2023-01-21T07:43:30.105Z,2.70
2023-01-21T07:46:00.055Z,2.60
2023-01-21T07:48:26.958Z,2.40
2023-01-21T07:50:57.850Z,3.00
2023-01-21T07:53:24.733Z,3.43
2023-01-21T07:55:51.324Z,3.37
2023-01-21T07:58:17.882Z,3.27
2023-01-21T08:00:44.452Z,3.17
2023-01-21T08:03:11.078Z,2.93
2023-01-21T08:05:37.623Z,2.67
2023-01-21T08:08:04.347Z,2.90
2023-01-21T08:10:30.932Z,3.13
2023-01-21T08:12:57.485Z,3.93
2023-01-21T08:15:24.022Z,2.70
2023-01-21T08:17:50.633Z,3.30
2023-01-21T08:20:17.336Z,3.37
2023-01-21T08:22:43.920Z,4.00
2023-01-21T08:25:11.594Z,3.50
2023-01-21T08:27:38.265Z,3.03
2023-01-21T08:30:05.414Z,2.30
2023-01-21T08:32:32.033Z,3.50
2023-01-21T08:34:58.731Z,4.63
2023-01-21T08:37:25.677Z,3.93
2023-01-21T08:39:52.237Z,4.07
2023-01-21T08:42:18.864Z,3.53
2023-01-21T08:44:46.326Z,4.73
2023-01-21T08:47:12.932Z,3.27
2023-01-21T08:49:39.494Z,3.03
2023-01-21T08:52:06.256Z,3.33
2023-01-21T08:54:32.844Z,4.13
2023-01-21T08:56:59.382Z,4.80
2023-01-21T08:59:28.546Z,3.97
2023-01-21T09:01:56.363Z,3.87
2023-01-21T09:04:23.445Z,3.27
2023-01-21T09:06:50.173Z,3.70
2023-01-21T09:09:16.769Z,4.87
2023-01-21T09:11:43.640Z,3.60
2023-01-21T09:14:10.303Z,4.20
2023-01-21T09:16:37.214Z,3.83
2023-01-21T09:19:04.100Z,4.87
2023-01-21T09:21:31.427Z,3.57
2023-01-21T09:23:57.995Z,5.93
2023-01-21T09:26:25.073Z,4.23
2023-01-21T09:28:54.357Z,4.73
2023-01-21T09:31:23.267Z,6.07
2023-01-21T09:33:55.781Z,5.90
2023-01-21T09:36:26.242Z,5.33
2023-01-21T09:38:53.514Z,4.83
2023-01-21T09:41:48.398Z,5.77
2023-01-21T09:44:24.089Z,6.03
2023-01-21T09:46:56.439Z,6.07
2023-01-21T09:49:30.280Z,6.30
2023-01-21T09:52:35.150Z,5.97
2023-01-21T09:55:03.002Z,5.57
2023-01-21T09:58:00.309Z,4.97
2023-01-21T10:00:51.886Z,5.33
2023-01-21T10:03:32.176Z,4.83
2023-01-21T10:06:21.970Z,5.77
2023-01-21T10:09:07.251Z,5.70
2023-01-21T10:11:51.262Z,4.93
2023-01-21T10:14:26.659Z,8.10
2023-01-21T10:17:08.994Z,5.33
2023-01-21T10:19:51.465Z,4.67
2023-01-21T10:22:22.634Z,5.17
2023-01-21T10:24:57.888Z,4.07
2023-01-21T10:27:25.851Z,3.77
2023-01-21T10:29:59.686Z,4.23
2023-01-21T10:32:27.930Z,3.80
2023-01-21T10:34:57.063Z,4.27
2023-01-21T10:37:39.024Z,3.87
2023-01-21T10:40:43.708Z,3.70
2023-01-21T10:43:40.624Z,3.77
2023-01-21T10:46:30.667Z,3.40
2023-01-21T10:49:02.192Z,2.97
2023-01-21T10:51:37.618Z,3.60
2023-01-21T10:54:22.678Z,4.13
2023-01-21T10:56:59.706Z,3.80
2023-01-21T10:59:33.381Z,3.83
2023-01-21T11:02:09.850Z,5.13
2023-01-21T11:04:39.847Z,4.47
2023-01-21T11:07:09.188Z,4.77
2023-01-21T11:09:40.682Z,3.83
2023-01-21T11:12:10.736Z,4.37
2023-01-21T11:14:37.409Z,5.17
2023-01-21T11:17:04.419Z,3.73
2023-01-21T11:19:31.485Z,4.17
2023-01-21T11:22:17.799Z,4.00
2023-01-21T11:24:47.076Z,4.03
2023-01-21T11:27:32.816Z,4.63
2023-01-21T11:29:59.748Z,4.07
2023-01-21T11:32:28.730Z,4.57
2023-01-21T11:35:14.543Z,4.07
2023-01-21T11:37:45.630Z,4.03
2023-01-21T11:40:21.168Z,4.07
2023-01-21T11:42:50.226Z,4.23
2023-01-21T11:45:27.808Z,4.13
2023-01-21T11:47:54.719Z,3.87
2023-01-21T11:50:39.982Z,3.93
2023-01-21T11:53:06.545Z,4.43
2023-01-21T11:55:38.522Z,3.37
2023-01-21T11:58:14.922Z,4.50
2023-01-21T12:00:48.230Z,3.53
2023-01-21T12:03:21.437Z,3.13
2023-01-21T12:05:52.996Z,5.07
2023-01-21T12:08:30.433Z,4.90
2023-01-21T12:11:03.923Z,3.93
2023-01-21T12:14:05.325Z,4.83
2023-01-21T12:16:40.131Z,4.73
2023-01-21T12:19:16.553Z,4.83
2023-01-21T12:22:21.951Z,4.43
2023-01-21T12:24:56.407Z,4.17
2023-01-21T12:27:59.763Z,4.70
2023-01-21T12:30:47.805Z,4.03
2023-01-21T12:33:19.977Z,3.20
2023-01-21T12:35:52.427Z,3.70
2023-01-21T12:38:30.818Z,3.27
2023-01-21T12:41:13.046Z,4.00
2023-01-21T12:43:49.857Z,4.33
2023-01-21T12:46:25.179Z,3.67
2023-01-21T12:49:06.514Z,3.60
2023-01-21T12:51:39.809Z,3.20
2023-01-21T12:54:43.622Z,4.50
2023-01-21T12:57:35.900Z,4.27
2023-01-21T13:00:21.058Z,3.73
2023-01-21T13:03:12.055Z,3.67
2023-01-21T13:05:57.124Z,3.80
2023-01-21T13:08:49.847Z,3.53
2023-01-21T13:11:22.233Z,3.23
2023-01-21T13:13:54.817Z,3.23
2023-01-21T13:16:25.921Z,3.83
2023-01-21T13:18:54.487Z,3.90
2023-01-21T13:21:52.051Z,4.10
2023-01-21T13:25:08.355Z,4.13
2023-01-21T13:27:51.816Z,4.07
2023-01-21T13:30:45.576Z,3.13
2023-01-21T13:33:40.607Z,3.37
2023-01-21T13:36:12.420Z,3.60
2023-01-21T13:39:12.902Z,4.53
2023-01-21T13:41:47.460Z,3.40
2023-01-21T13:45:00.291Z,4.13
2023-01-21T13:48:05.570Z,4.23
2023-01-21T13:50:55.237Z,4.73
2023-01-21T13:53:46.465Z,3.57
2023-01-21T13:56:29.195Z,3.43
2023-01-21T13:59:09.754Z,3.17
2023-01-21T14:01:49.533Z,3.40
2023-01-21T14:04:40.829Z,4.57
2023-01-21T14:07:24.238Z,4.87
2023-01-21T14:10:22.467Z,3.97
2023-01-21T14:13:23.454Z,3.30
2023-01-21T14:16:12.759Z,4.07
2023-01-21T14:19:26.932Z,3.20
2023-01-21T14:22:02.935Z,3.20
2023-01-21T14:24:51.602Z,3.63
2023-01-21T14:27:18.216Z,4.40
2023-01-21T14:29:50.739Z,3.33
2023-01-21T14:32:35.109Z,3.60
2023-01-21T14:35:13.961Z,3.17
2023-01-21T14:37:49.340Z,3.33
2023-01-21T14:40:27.541Z,3.23
2023-01-21T14:42:54.669Z,3.93
2023-01-21T14:45:25.680Z,3.57
2023-01-21T14:47:57.656Z,3.70
2023-01-21T14:50:52.013Z,3.73
2023-01-21T14:53:25.124Z,3.30
2023-01-21T14:56:19.152Z,3.97
2023-01-21T14:58:49.005Z,3.17
2023-01-21T15:01:26.792Z,3.83
2023-01-21T15:03:53.770Z,3.57
2023-01-21T15:06:23.439Z,3.43
2023-01-21T15:08:53.310Z,3.77
2023-01-21T15:11:31.312Z,3.90
2023-01-21T15:14:15.048Z,2.83
2023-01-21T15:16:44.124Z,3.13
2023-01-21T15:19:14.628Z,2.97
2023-01-21T15:21:41.167Z,3.63
2023-01-21T15:24:36.241Z,4.10
2023-01-21T15:27:28.357Z,3.33
2023-01-21T15:29:55.242Z,6.05
2023-01-21T15:32:51.250Z,4.73
2023-01-21T15:35:20.894Z,4.77
2023-01-21T15:37:51.234Z,4.17
2023-01-21T15:40:20.831Z,3.60
2023-01-21T15:43:06.070Z,3.13
2023-01-21T15:46:00.412Z,5.93
2023-01-21T15:49:05.544Z,6.90
2023-01-21T15:52:12.322Z,3.97
2023-01-21T15:55:09.138Z,5.37
2023-01-21T15:57:50.697Z,3.37
2023-01-21T16:00:32.898Z,3.40
2023-01-21T16:03:08.293Z,6.00
2023-01-21T16:05:50.203Z,4.00
2023-01-21T16:08:20.771Z,4.17
2023-01-21T16:11:13.844Z,3.60
2023-01-21T16:13:57.800Z,2.77
2023-01-21T16:16:42.138Z,2.87
2023-01-21T16:19:24.005Z,3.77
2023-01-21T16:21:55.414Z,8.15
2023-01-21T16:24:27.487Z,4.93
2023-01-21T16:26:54.544Z,4.97
2023-01-21T16:29:21.394Z,5.07
2023-01-21T16:31:59.224Z,3.57
2023-01-21T16:34:39.704Z,2.03
2023-01-21T16:37:07.188Z,2.90
2023-01-21T16:39:33.788Z,2.93
2023-01-21T16:42:03.033Z,3.67
2023-01-21T16:44:32.065Z,3.27
2023-01-21T16:46:58.710Z,3.00
2023-01-21T16:49:25.976Z,2.93
2023-01-21T16:52:02.897Z,3.27
2023-01-21T16:54:32.055Z,2.47
2023-01-21T16:57:03.021Z,2.00
2023-01-21T16:59:41.521Z,3.07
2023-01-21T17:02:28.029Z,3.03
2023-01-21T17:04:59.179Z,3.37
2023-01-21T17:07:33.341Z,2.93
2023-01-21T17:10:06.944Z,3.17
2023-01-21T17:12:36.247Z,2.80
2023-01-21T17:15:16.453Z,2.67
2023-01-21T17:17:43.485Z,3.47
2023-01-21T17:20:46.327Z,2.50
2023-01-21T17:23:33.459Z,2.57
2023-01-21T17:26:23.719Z,3.03
2023-01-21T17:28:59.742Z,2.77
2023-01-21T17:31:31.287Z,3.00
2023-01-21T17:34:27.148Z,3.47
2023-01-21T17:36:54.884Z,2.77
2023-01-21T17:39:43.302Z,3.43
2023-01-21T17:42:21.906Z,2.13
2023-01-21T17:44:51.143Z,3.57
2023-01-21T17:47:33.713Z,3.20
2023-01-21T17:50:23.177Z,2.77
2023-01-21T17:52:55.135Z,3.80
2023-01-21T17:55:26.738Z,3.30
2023-01-21T17:57:54.256Z,4.07
2023-01-21T18:00:34.285Z,3.23
2023-01-21T18:03:01.048Z,3.50
2023-01-21T18:05:28.716Z,3.97
2023-01-21T18:07:55.329Z,3.97
2023-01-21T18:10:28.243Z,3.50
2023-01-21T18:12:57.707Z,2.93
2023-01-21T18:15:25.300Z,2.93
2023-01-21T18:17:56.546Z,4.10
2023-01-21T18:20:29.101Z,3.73
2023-01-21T18:22:58.068Z,3.50
2023-01-21T18:25:27.089Z,3.57
2023-01-21T18:27:56.883Z,3.00
2023-01-21T18:30:28.385Z,3.73
2023-01-21T18:32:55.816Z,3.63
2023-01-21T18:35:28.134Z,2.33
2023-01-21T18:37:54.754Z,3.17
2023-01-21T18:40:23.182Z,3.70
2023-01-21T18:42:52.181Z,2.73
2023-01-21T18:45:22.184Z,2.83
2023-01-21T18:47:50.269Z,3.57
2023-01-21T18:50:19.714Z,2.30
2023-01-21T18:52:46.755Z,1.97
2023-01-21T18:55:15.114Z,3.17
2023-01-21T18:57:44.093Z,2.03
2023-01-21T19:00:25.658Z,2.20
2023-01-21T19:02:54.315Z,2.63
2023-01-21T19:05:24.115Z,2.97
2023-01-21T19:07:50.679Z,3.53
2023-01-21T19:10:20.024Z,2.93
2023-01-21T19:12:47.994Z,3.00
2023-01-21T19:15:16.886Z,3.83
2023-01-21T19:17:44.733Z,3.03
2023-01-21T19:20:41.419Z,2.57
2023-01-21T19:23:17.130Z,3.00
2023-01-21T19:26:04.224Z,2.93
2023-01-21T19:28:31.219Z,3.50
2023-01-21T19:30:58.541Z,2.40
2023-01-21T19:33:25.938Z,2.00
2023-01-21T19:36:17.404Z,2.83
2023-01-21T19:38:53.435Z,1.67
2023-01-21T19:41:20.075Z,2.80
2023-01-21T19:43:46.667Z,1.70
2023-01-21T19:46:13.585Z,2.27
2023-01-21T19:48:41.113Z,2.60
2023-01-21T19:51:07.947Z,1.67
2023-01-21T19:53:34.597Z,1.60
2023-01-21T19:56:01.695Z,1.40
2023-01-21T19:58:30.584Z,2.03
2023-01-21T20:00:57.211Z,1.60
2023-01-21T20:03:26.108Z,1.77
2023-01-21T20:05:57.154Z,1.40
2023-01-21T20:08:27.432Z,2.17
2023-01-21T20:10:54.051Z,1.50
2023-01-21T20:13:20.994Z,1.63
2023-01-21T20:15:49.598Z,0.67
2023-01-21T20:18:23.021Z,1.40
2023-01-21T20:20:49.815Z,1.77
2023-01-21T20:23:17.268Z,1.67
2023-01-21T20:25:46.115Z,1.30
2023-01-21T20:28:17.291Z,0.87
2023-01-21T20:30:44.560Z,1.30
2023-01-21T20:33:14.166Z,1.47
2023-01-21T20:35:41.111Z,1.87
2023-01-21T20:38:13.277Z,1.97
2023-01-21T20:40:39.963Z,1.10
2023-01-21T20:43:06.863Z,1.40
2023-01-21T20:45:43.271Z,2.47
2023-01-21T20:48:42.278Z,2.23
2023-01-21T20:51:09.637Z,0.97
2023-01-21T20:53:36.411Z,1.37
2023-01-21T20:56:34.241Z,1.63
2023-01-21T20:59:00.902Z,1.23
2023-01-21T21:01:28.537Z,1.67
2023-01-21T21:03:55.400Z,1.67
2023-01-21T21:06:25.672Z,2.30
2023-01-21T21:08:52.488Z,1.90
2023-01-21T21:11:19.797Z,2.93
2023-01-21T21:13:48.348Z,2.27
2023-01-21T21:16:19.679Z,2.57
2023-01-21T21:18:46.823Z,1.80
2023-01-21T21:21:14.314Z,2.00
2023-01-21T21:23:41.359Z,1.80
2023-01-21T21:26:18.218Z,1.80
2023-01-21T21:28:45.991Z,2.23
2023-01-21T21:31:14.456Z,2.40
2023-01-21T21:33:41.859Z,2.63
2023-01-21T21:36:17.171Z,1.70
2023-01-21T21:38:44.490Z,1.77
2023-01-21T21:41:38.410Z,2.30
2023-01-21T21:44:06.024Z,2.43
2023-01-21T21:46:51.444Z,2.07
2023-01-21T21:49:18.207Z,1.43
2023-01-21T21:51:45.833Z,1.70
2023-01-21T21:54:15.079Z,1.60
2023-01-21T21:56:42.592Z,2.43
2023-01-21T21:59:10.475Z,1.57
2023-01-21T22:01:37.317Z,0.90
2023-01-21T22:04:04.678Z,1.47
2023-01-21T22:06:32.466Z,1.37
2023-01-21T22:08:59.818Z,1.23
2023-01-21T22:11:27.584Z,1.77
2023-01-21T22:13:55.534Z,1.43
2023-01-21T22:16:27.537Z,0.93
2023-01-21T22:18:55.973Z,2.37
2023-01-21T22:21:28.467Z,1.30
2023-01-21T22:23:55.190Z,1.13
2023-01-21T22:26:24.456Z,1.00
2023-01-21T22:28:51.295Z,1.37
2023-01-21T22:31:27.016Z,1.37
2023-01-21T22:33:54.030Z,1.97
2023-01-21T22:36:22.935Z,0.83
2023-01-21T22:38:50.181Z,1.10
2023-01-21T22:41:19.456Z,1.37
2023-01-21T22:43:48.566Z,1.93
2023-01-21T22:46:24.333Z,1.40
2023-01-21T22:48:52.510Z,1.40
2023-01-21T22:51:21.154Z,0.63
2023-01-21T22:53:49.362Z,1.53
2023-01-21T22:56:18.401Z,2.13
2023-01-21T22:58:45.093Z,1.70
2023-01-21T23:01:31.025Z,1.47
2023-01-21T23:03:59.655Z,1.27
2023-01-21T23:06:26.295Z,1.33
2023-01-21T23:08:52.957Z,1.53
2023-01-21T23:11:20.105Z,1.40
2023-01-21T23:13:47.087Z,1.60
2023-01-21T23:16:16.861Z,1.27
2023-01-21T23:18:43.570Z,1.33
2023-01-21T23:21:14.242Z,1.20
2023-01-21T23:23:40.970Z,1.40
2023-01-21T23:26:10.072Z,1.17
2023-01-21T23:28:37.234Z,1.37
2023-01-21T23:31:09.823Z,2.00
2023-01-21T23:33:36.933Z,1.63
2023-01-21T23:36:03.714Z,1.20
2023-01-21T23:38:30.428Z,1.43
2023-01-21T23:40:57.294Z,1.13
2023-01-21T23:43:26.397Z,1.43
2023-01-21T23:45:54.026Z,1.13
2023-01-21T23:48:21.262Z,1.90
2023-01-21T23:50:48.386Z,1.93
2023-01-21T23:53:15.072Z,2.53
2023-01-21T23:55:41.638Z,1.23
2023-01-21T23:58:08.189Z,2.43
